Saskatoon, Canada
Current Conditions -  °F | °C
As of 5:00 AM on Wednesday 26 Nov 2014 (Local Time) from CYXE Reporting Station
Light Snow Light Snow  
Wind Chill: -14°   Ceiling: 1800
Heat Index:   Visibility: 15mi
Dew Point: -2°   Wind: 9mph
Humidity: 85%   Direction: 60°ENE
Pressure: 30.37"   Gusts: NA
Location:  52.13°N, 106.66°W
Report Text: CYXE 261100Z 06008KT 15SM -SN OVC018 M17/M19 A3037 RMK SC8 SLP333
Loading
Personal Weather Stations






























Interactive Weather Map New forecast layout! Learn more

10-Day Weather Forecast

Advertisements
Track Severe Weather on mobile